Time;durP1;ratioP1;P1;durP2;ratioP2;P2;SDS_P1;SDS_P2;PMS_P1;PMS_P2;Temp;Humidity;BMP_temperature;BMP_pressure;BME280_temperature;BME280_humidity;BME280_pressure;Samples;Min_cycle;Max_cycle;Signal;HPM_P1;HPM_P2
2021/10/04 00:00:19;;;;;;;34.07;17.30;;;;;;;8.64;61.07;102283.19;5110518;28;20651;-62
2021/10/04 00:02:45;;;;;;;53.37;23.47;;;;;;;8.91;61.19;102333.63;5110281;28;20455;-61
2021/10/04 00:05:11;;;;;;;50.37;22.43;;;;;;;8.78;60.83;102319.28;5128244;28;20210;-61
2021/10/04 00:07:37;;;;;;;88.50;33.17;;;;;;;8.82;61.21;102333.91;5132739;27;20558;-61
2021/10/04 00:10:12;;;;;;;64.53;28.43;;;;;;;8.79;61.27;102328.34;5117282;27;20574;-61
2021/10/04 00:12:38;;;;;;;76.07;31.93;;;;;;;8.65;61.14;102317.94;5117069;28;20174;-61
2021/10/04 00:15:06;;;;;;;52.83;27.40;;;;;;;8.69;61.47;102327.06;5116661;28;20173;-61
2021/10/04 00:17:32;;;;;;;41.47;21.40;;;;;;;8.36;61.24;102277.34;5116309;28;20230;-61
2021/10/04 00:19:57;;;;;;;33.40;18.33;;;;;;;8.65;61.13;102329.00;5116430;28;20180;-61
2021/10/04 00:22:23;;;;;;;30.87;17.30;;;;;;;8.63;60.95;102327.78;5130444;27;20264;-61
2021/10/04 00:24:48;;;;;;;26.30;15.93;;;;;;;8.58;61.42;102322.59;5137196;27;20204;-61
2021/10/04 00:27:14;;;;;;;27.13;16.57;;;;;;;8.42;61.79;102309.00;5137155;27;20207;-61
2021/10/04 00:29:39;;;;;;;29.97;17.77;;;;;;;8.16;60.92;102275.88;5137504;27;20566;-62
2021/10/04 00:32:05;;;;;;;34.27;17.87;;;;;;;8.41;60.78;102310.16;5136867;27;20187;-61
2021/10/04 00:34:31;;;;;;;29.47;17.70;;;;;;;8.41;61.61;102306.63;5104560;28;20709;-61
2021/10/04 00:36:56;;;;;;;29.27;17.23;;;;;;;8.24;61.55;102276.81;5116205;28;20180;-62
2021/10/04 00:39:22;;;;;;;30.00;16.73;;;;;;;8.35;61.88;102303.38;5116290;28;20636;-61
2021/10/04 00:41:47;;;;;;;33.93;17.57;;;;;;;8.34;62.07;102301.00;5116539;28;20181;-61
2021/10/04 00:44:13;;;;;;;26.03;15.47;;;;;;;8.25;62.60;102287.47;5116711;28;20274;-61
2021/10/04 00:46:39;;;;;;;29.10;16.10;;;;;;;8.29;62.63;102317.91;5116295;28;20205;-61
2021/10/04 00:49:05;;;;;;;25.37;15.07;;;;;;;8.27;62.31;102312.78;5097848;28;20190;-62
2021/10/04 00:51:31;;;;;;;30.20;16.70;;;;;;;8.20;61.50;102311.91;5116829;28;20178;-61
2021/10/04 00:53:57;;;;;;;25.50;16.43;;;;;;;8.19;61.13;102307.47;5116247;28;20664;-61
2021/10/04 00:56:23;;;;;;;31.40;16.40;;;;;;;8.16;60.18;102309.03;5116194;28;20185;-61
2021/10/04 00:58:49;;;;;;;40.10;20.10;;;;;;;8.09;60.34;102314.47;5122273;27;20182;-61
2021/10/04 01:01:15;;;;;;;68.30;28.33;;;;;;;7.90;61.98;102309.09;5116314;28;20549;-61
2021/10/04 01:03:41;;;;;;;170.27;63.07;;;;;;;7.97;62.35;102316.66;5121998;27;20205;-61
2021/10/04 01:06:07;;;;;;;98.60;39.83;;;;;;;8.00;61.57;102316.72;5136486;27;20189;-61
2021/10/04 01:08:32;;;;;;;100.40;42.40;;;;;;;8.01;61.58;102323.03;5117551;27;20181;-62
2021/10/04 01:10:58;;;;;;;84.47;34.50;;;;;;;7.99;62.19;102317.09;5115864;28;20554;-61
2021/10/04 01:13:24;;;;;;;63.57;28.47;;;;;;;7.98;62.00;102316.31;5116242;28;20186;-61
2021/10/04 01:15:50;;;;;;;89.50;37.87;;;;;;;7.94;61.88;102298.88;5115585;28;20180;-61
2021/10/04 01:18:15;;;;;;;112.90;44.70;;;;;;;7.60;62.62;102246.78;5097729;28;20229;-61
2021/10/04 01:20:42;;;;;;;97.67;39.43;;;;;;;8.06;62.30;102309.72;5112393;28;20215;-61
2021/10/04 01:23:07;;;;;;;83.60;36.13;;;;;;;8.08;62.27;102309.31;5112667;28;20567;-62
2021/10/04 01:25:33;;;;;;;85.47;33.70;;;;;;;8.07;62.64;102314.06;5112833;28;20186;-61
2021/10/04 01:27:59;;;;;;;63.30;29.57;;;;;;;8.08;62.70;102312.88;5112559;28;20475;-61
2021/10/04 01:30:27;;;;;;;62.87;28.57;;;;;;;8.07;62.48;102302.22;5112976;28;20221;-61
2021/10/04 01:32:53;;;;;;;57.83;25.83;;;;;;;8.07;62.13;102314.06;5112630;28;20178;-62
2021/10/04 01:35:19;;;;;;;52.33;23.43;;;;;;;8.07;62.43;102313.25;5112570;28;20728;-61
2021/10/04 01:37:45;;;;;;;62.87;22.07;;;;;;;8.04;62.09;102305.75;5112476;28;20693;-61
2021/10/04 01:40:12;;;;;;;44.77;20.93;;;;;;;7.94;61.39;102287.06;5112649;28;20567;-61
2021/10/04 01:42:38;;;;;;;48.63;22.77;;;;;;;8.06;61.64;102306.97;5113095;28;20242;-61
2021/10/04 01:45:07;;;;;;;56.97;25.47;;;;;;;8.04;61.28;102301.00;5112239;28;20264;-62
2021/10/04 01:47:33;;;;;;;71.90;29.37;;;;;;;8.05;61.66;102296.28;5112385;28;20566;-61
2021/10/04 01:49:58;;;;;;;73.13;33.57;;;;;;;7.63;61.64;102238.53;5112122;28;20180;-61
2021/10/04 01:52:24;;;;;;;141.00;51.03;;;;;;;8.05;61.78;102301.81;5112540;28;20179;-61
2021/10/04 01:54:49;;;;;;;119.40;47.10;;;;;;;7.83;61.77;102259.31;5112053;28;20744;-61
2021/10/04 01:57:15;;;;;;;104.10;42.33;;;;;;;7.99;61.57;102290.28;5115592;27;20181;-61
2021/10/04 01:59:40;;;;;;;110.07;44.60;;;;;;;7.97;62.30;102298.16;5114613;27;20502;-61
2021/10/04 02:02:06;;;;;;;111.33;42.87;;;;;;;7.98;62.09;102307.22;5112622;28;20567;-61
2021/10/04 02:04:31;;;;;;;113.10;39.27;;;;;;;7.95;62.42;102310.75;5125004;27;20650;-61
2021/10/04 02:06:57;;;;;;;74.43;31.97;;;;;;;7.92;61.91;102295.72;5132247;27;20181;-61
2021/10/04 02:09:22;;;;;;;86.57;34.37;;;;;;;7.89;62.32;102301.19;5118653;27;20603;-61
2021/10/04 02:11:48;;;;;;;76.30;31.00;;;;;;;7.74;62.49;102289.16;5111472;28;20181;-61
2021/10/04 02:14:15;;;;;;;82.60;30.97;;;;;;;7.50;62.18;102259.25;5112100;28;20198;-61
2021/10/04 02:16:41;;;;;;;81.40;30.17;;;;;;;7.57;62.28;102272.34;5111940;28;20281;-61
2021/10/04 02:19:08;;;;;;;50.23;23.00;;;;;;;7.76;62.07;102308.09;5111357;28;20316;-61
2021/10/04 02:21:34;;;;;;;60.10;24.10;;;;;;;7.21;61.52;102228.84;5112026;28;20230;-61
2021/10/04 02:23:59;;;;;;;41.03;20.23;;;;;;;7.67;60.76;102300.09;5111623;28;20651;-61
2021/10/04 02:26:25;;;;;;;36.50;19.30;;;;;;;7.60;60.63;102300.00;5111798;28;20708;-61
2021/10/04 02:28:50;;;;;;;31.83;19.10;;;;;;;7.60;60.99;102310.22;5111480;28;20182;-61
2021/10/04 02:31:16;;;;;;;39.80;19.67;;;;;;;7.50;61.96;102303.41;5111661;28;20272;-61
2021/10/04 02:33:42;;;;;;;36.93;18.97;;;;;;;7.49;61.60;102307.28;5119235;27;20723;-61
2021/10/04 02:36:08;;;;;;;35.40;17.33;;;;;;;6.87;61.56;102232.66;5131567;27;20177;-61
2021/10/04 02:38:34;;;;;;;32.43;16.90;;;;;;;7.41;61.65;102315.84;5132176;27;20722;-61
2021/10/04 02:41:00;;;;;;;30.17;16.87;;;;;;;7.11;61.97;102292.88;5131876;27;20180;-61
2021/10/04 02:43:25;;;;;;;31.07;16.50;;;;;;;7.33;62.08;102320.44;5132091;27;20233;-61
2021/10/04 02:45:51;;;;;;;28.13;17.87;;;;;;;7.31;61.63;102321.97;5131443;27;20561;-61
2021/10/04 02:48:18;;;;;;;28.63;18.00;;;;;;;7.27;62.41;102321.13;5131810;27;20183;-61
2021/10/04 02:50:45;;;;;;;27.73;18.13;;;;;;;7.24;62.59;102330.94;5131731;27;20183;-61
2021/10/04 02:53:10;;;;;;;29.30;17.63;;;;;;;7.21;62.36;102331.69;5131992;27;20176;-61
2021/10/04 02:55:35;;;;;;;28.53;18.30;;;;;;;7.22;62.42;102329.72;5131396;27;20197;-61
2021/10/04 02:58:02;;;;;;;36.17;20.73;;;;;;;7.17;62.98;102338.31;5126814;27;20629;-61
2021/10/04 03:00:27;;;;;;;34.20;19.33;;;;;;;7.14;61.97;102326.06;5111463;28;20177;-61
2021/10/04 03:02:53;;;;;;;37.30;20.27;;;;;;;7.17;62.78;102336.31;5110802;28;20772;-61
2021/10/04 03:05:18;;;;;;;36.23;20.10;;;;;;;7.12;62.74;102339.38;5130316;27;20192;-61
2021/10/04 03:07:44;;;;;;;35.17;21.60;;;;;;;7.11;63.31;102337.81;5131425;27;20203;-61
2021/10/04 03:10:10;;;;;;;37.70;19.80;;;;;;;7.09;63.79;102351.16;5110210;27;20185;-61
2021/10/04 03:12:35;;;;;;;35.20;19.70;;;;;;;7.07;64.16;102347.97;5110928;28;20178;-62
2021/10/04 03:15:01;;;;;;;38.83;21.07;;;;;;;6.79;64.07;102314.41;5110767;28;20201;-61
2021/10/04 03:17:27;;;;;;;37.23;20.90;;;;;;;7.07;64.24;102341.66;5091742;28;20245;-61
2021/10/04 03:19:53;;;;;;;37.17;21.43;;;;;;;6.62;64.75;102287.28;5110519;28;20165;-61
2021/10/04 03:22:18;;;;;;;39.17;21.13;;;;;;;7.07;64.83;102353.47;5110924;28;20189;-61
2021/10/04 03:24:44;;;;;;;40.27;19.97;;;;;;;6.88;64.42;102306.66;5110663;28;20650;-61
2021/10/04 03:27:09;;;;;;;36.83;20.30;;;;;;;7.09;64.26;102344.84;5110143;28;20255;-61
2021/10/04 03:29:35;;;;;;;32.43;18.90;;;;;;;7.02;63.80;102333.72;5110720;28;20234;-61
2021/10/04 03:32:00;;;;;;;33.67;18.67;;;;;;;7.09;63.58;102353.94;5110147;28;20263;-61
2021/10/04 03:34:26;;;;;;;45.00;21.47;;;;;;;7.09;63.69;102342.91;5110469;28;20267;-61
2021/10/04 03:36:53;;;;;;;50.63;25.43;;;;;;;7.09;63.90;102356.69;5109925;28;20300;-61
2021/10/04 03:39:19;;;;;;;57.53;26.93;;;;;;;6.98;64.13;102344.66;5110151;28;20173;-61
2021/10/04 03:41:44;;;;;;;47.47;22.17;;;;;;;6.90;63.75;102331.09;5110214;28;20712;-61
2021/10/04 03:44:10;;;;;;;39.17;21.80;;;;;;;7.10;63.78;102352.75;5110423;28;20182;-61
2021/10/04 03:46:36;;;;;;;34.37;19.10;;;;;;;7.03;62.72;102351.84;5109862;28;20177;-61
2021/10/04 03:49:01;;;;;;;27.47;15.07;;;;;;;6.90;61.75;102362.22;5109970;28;20687;-61
2021/10/04 03:51:28;;;;;;;27.17;15.20;;;;;;;6.90;61.97;102362.22;5110068;28;20245;-61
2021/10/04 03:53:53;;;;;;;25.93;15.20;;;;;;;6.80;63.93;102345.50;5110177;28;20286;-61
2021/10/04 03:56:19;;;;;;;37.77;19.77;;;;;;;6.82;66.24;102368.75;5109641;28;20702;-61
2021/10/04 03:58:45;;;;;;;29.27;16.40;;;;;;;6.78;65.59;102367.91;5109755;28;20190;-60
2021/10/04 04:01:11;;;;;;;30.20;16.73;;;;;;;6.79;65.73;102377.78;5091710;28;20181;-61
2021/10/04 04:03:37;;;;;;;37.93;17.80;;;;;;;6.80;66.53;102373.03;5111112;27;20268;-61
2021/10/04 04:06:03;;;;;;;32.60;18.03;;;;;;;6.70;66.49;102366.19;5109401;28;20628;-64
2021/10/04 04:08:29;;;;;;;38.00;18.13;;;;;;;6.40;66.63;102332.13;5107754;28;20578;-62
2021/10/04 04:10:55;;;;;;;37.30;20.00;;;;;;;6.68;66.18;102379.53;5116904;28;20457;-61
2021/10/04 04:13:21;;;;;;;34.80;20.50;;;;;;;6.70;67.63;102377.19;5110090;28;20201;-61
2021/10/04 04:15:47;;;;;;;45.47;21.03;;;;;;;6.21;67.84;102290.81;5109259;28;20277;-60
2021/10/04 04:18:12;;;;;;;39.00;21.83;;;;;;;6.69;67.56;102375.59;5108887;28;20610;-61
2021/10/04 04:20:38;;;;;;;45.97;25.03;;;;;;;6.76;67.43;102375.72;5109697;28;20206;-61
2021/10/04 04:23:04;;;;;;;58.07;25.70;;;;;;;6.69;67.26;102364.59;5109070;28;20174;-61
2021/10/04 04:25:29;;;;;;;73.47;34.73;;;;;;;6.80;66.56;102384.88;5109299;28;20199;-62
2021/10/04 04:27:58;;;;;;;98.20;38.30;;;;;;;6.81;67.26;102380.16;5108216;28;20679;-61
2021/10/04 04:30:25;;;;;;;65.30;30.03;;;;;;;6.77;66.73;102371.81;5107334;28;20185;-61
2021/10/04 04:32:50;;;;;;;48.23;27.43;;;;;;;6.83;66.42;102386.09;5087298;28;20202;-60
2021/10/04 04:35:16;;;;;;;56.33;25.20;;;;;;;6.84;65.54;102391.25;5108595;28;20206;-62
2021/10/04 04:37:43;;;;;;;38.87;23.03;;;;;;;6.87;64.55;102401.53;5108596;28;20576;-61
2021/10/04 04:40:12;;;;;;;52.67;27.03;;;;;;;6.69;64.58;102367.34;5108408;28;20186;-61
2021/10/04 04:42:39;;;;;;;68.80;28.07;;;;;;;6.60;65.24;102353.00;5102866;28;20671;-61
2021/10/04 04:45:05;;;;;;;62.17;29.40;;;;;;;6.87;64.87;102398.78;5088225;28;20177;-61
2021/10/04 04:47:31;;;;;;;50.67;26.47;;;;;;;6.81;64.50;102386.47;5104287;28;20194;-61
2021/10/04 04:49:56;;;;;;;41.00;22.63;;;;;;;6.57;64.51;102347.41;5070100;28;20198;-61
2021/10/04 04:52:22;;;;;;;43.60;26.17;;;;;;;6.96;64.66;102407.63;5085115;28;20197;-62
2021/10/04 04:54:47;;;;;;;52.03;23.67;;;;;;;6.97;64.25;102405.69;5090500;27;20315;-62
2021/10/04 04:57:13;;;;;;;48.97;30.33;;;;;;;7.00;64.00;102400.22;5106020;27;20221;-60
2021/10/04 04:59:39;;;;;;;35.23;21.23;;;;;;;7.03;63.81;102399.47;5103365;27;20608;-60
2021/10/04 05:02:04;;;;;;;36.93;17.50;;;;;;;7.08;63.88;102401.16;5117176;27;20326;-60
2021/10/04 05:04:30;;;;;;;36.93;18.70;;;;;;;7.12;63.61;102405.56;5117995;27;20569;-61
2021/10/04 05:06:56;;;;;;;36.10;18.87;;;;;;;7.12;63.57;102418.56;5095825;27;20190;-60
2021/10/04 05:09:22;;;;;;;32.30;17.97;;;;;;;7.14;64.15;102407.97;5111464;27;20319;-61
2021/10/04 05:11:47;;;;;;;28.00;16.90;;;;;;;7.02;64.45;102395.13;5104218;27;20268;-60
2021/10/04 05:14:13;;;;;;;32.20;17.60;;;;;;;7.17;64.07;102407.25;5109651;28;20275;-61
2021/10/04 05:16:38;;;;;;;35.53;20.93;;;;;;;6.94;63.72;102371.38;5112375;27;20225;-61
2021/10/04 05:19:04;;;;;;;33.23;17.17;;;;;;;7.18;63.74;102417.09;5109189;27;20280;-61
2021/10/04 05:21:30;;;;;;;29.40;16.57;;;;;;;6.98;63.77;102379.69;5108808;28;20183;-61
2021/10/04 05:23:55;;;;;;;28.30;14.13;;;;;;;7.15;64.00;102404.03;5107419;27;20272;-61
2021/10/04 05:26:21;;;;;;;31.00;14.70;;;;;;;7.24;63.75;102424.72;5108125;27;20281;-61
2021/10/04 05:28:47;;;;;;;22.10;13.50;;;;;;;7.24;63.94;102424.72;5109482;27;20221;-61
2021/10/04 05:31:12;;;;;;;23.43;14.70;;;;;;;7.15;63.70;102402.09;5108856;28;20189;-61
2021/10/04 05:33:38;;;;;;;21.43;13.60;;;;;;;7.29;63.95;102421.63;5107138;28;20198;-61
2021/10/04 05:36:05;;;;;;;23.63;12.90;;;;;;;7.34;63.66;102426.84;5110097;27;20210;-61
2021/10/04 05:38:31;;;;;;;22.30;12.13;;;;;;;6.61;64.15;102304.22;5105619;27;20456;-60
2021/10/04 05:40:56;;;;;;;26.20;13.43;;;;;;;7.39;63.81;102426.53;5110580;27;20182;-60
2021/10/04 05:43:22;;;;;;;19.57;13.83;;;;;;;7.46;63.92;102423.09;5107250;28;20758;-60
2021/10/04 05:45:49;;;;;;;22.90;15.20;;;;;;;7.36;63.47;102405.22;5109494;27;20647;-61
2021/10/04 05:48:14;;;;;;;23.13;16.80;;;;;;;7.24;63.55;102380.59;5104439;27;20211;-60
2021/10/04 05:50:40;;;;;;;39.40;23.03;;;;;;;7.58;63.33;102425.69;5105835;28;20990;-61
2021/10/04 05:53:05;;;;;;;32.67;22.83;;;;;;;7.73;63.45;102433.81;5106318;27;20188;-61
2021/10/04 05:55:31;;;;;;;27.40;18.37;;;;;;;7.71;63.18;102418.81;5108071;28;20257;-62
2021/10/04 05:57:56;;;;;;;19.93;13.77;;;;;;;7.61;63.52;102398.16;5110573;27;20564;-60
2021/10/04 06:00:22;;;;;;;18.43;13.80;;;;;;;7.97;63.99;102427.91;5111032;27;20801;-61
2021/10/04 06:02:47;;;;;;;17.00;13.17;;;;;;;8.06;63.58;102436.75;5107517;27;20190;-61
2021/10/04 06:05:13;;;;;;;21.73;14.03;;;;;;;8.19;63.91;102440.88;5105607;27;20191;-60
2021/10/04 06:07:39;;;;;;;22.30;14.07;;;;;;;7.59;63.48;102325.19;5106154;27;20189;-61
2021/10/04 06:10:07;;;;;;;22.23;14.80;;;;;;;8.44;63.60;102450.34;5106618;27;20637;-60
2021/10/04 06:12:32;;;;;;;21.83;14.10;;;;;;;8.58;63.58;102445.00;5110592;27;20681;-61
2021/10/04 06:15:00;;;;;;;20.50;13.80;;;;;;;8.61;63.91;102433.19;5108240;28;20286;-61
2021/10/04 06:17:27;;;;;;;18.47;13.00;;;;;;;8.81;63.69;102445.69;5092586;28;20249;-61
2021/10/04 06:19:54;;;;;;;18.00;12.67;;;;;;;8.97;63.76;102451.78;5108682;28;20719;-62
2021/10/04 06:22:22;;;;;;;17.70;13.33;;;;;;;9.14;63.82;102442.91;5109645;28;20547;-61
2021/10/04 06:24:48;;;;;;;19.90;13.03;;;;;;;9.29;63.72;102439.13;5110114;27;20177;-61
2021/10/04 06:27:14;;;;;;;17.83;12.90;;;;;;;9.40;63.59;102447.50;5107408;28;20650;-60
2021/10/04 06:29:42;;;;;;;19.13;12.73;;;;;;;9.47;63.50;102428.19;5101143;28;20261;-62
2021/10/04 06:32:07;;;;;;;17.53;12.43;;;;;;;9.70;63.43;102439.88;5110963;27;20201;-61
2021/10/04 06:34:33;;;;;;;18.13;12.30;;;;;;;9.83;63.23;102435.63;5105134;27;20695;-61
2021/10/04 06:36:58;;;;;;;16.40;12.80;;;;;;;9.96;63.18;102425.84;5103219;27;20257;-61
2021/10/04 06:39:24;;;;;;;20.30;13.20;;;;;;;10.13;63.34;102442.63;5105003;28;20189;-61
2021/10/04 06:41:50;;;;;;;24.00;17.77;;;;;;;10.32;63.16;102436.03;5102788;28;20189;-61
2021/10/04 06:44:15;;;;;;;20.40;15.57;;;;;;;10.49;62.77;102438.88;5105642;28;20186;-62
2021/10/04 06:46:41;;;;;;;17.00;14.07;;;;;;;10.66;62.64;102448.50;5086704;28;20646;-62
2021/10/04 06:49:06;;;;;;;17.13;13.17;;;;;;;10.78;62.40;102440.63;5107403;27;20186;-60
2021/10/04 06:51:32;;;;;;;23.13;18.80;;;;;;;10.58;61.98;102389.44;5105703;28;20190;-60
2021/10/04 06:53:58;;;;;;;20.17;15.30;;;;;;;10.85;61.32;102403.78;5108546;27;20214;-60
2021/10/04 06:56:24;;;;;;;24.73;14.83;;;;;;;11.30;60.18;102456.63;5108700;27;20818;-59
2021/10/04 06:58:49;;;;;;;18.33;13.10;;;;;;;11.45;59.75;102451.91;5102011;27;20564;-59
2021/10/04 07:01:15;;;;;;;20.17;14.57;;;;;;;11.55;59.70;102446.38;5108781;27;20194;-58
2021/10/04 07:03:40;;;;;;;17.07;13.20;;;;;;;11.69;59.21;102451.94;5090718;27;20280;-58
2021/10/04 07:06:06;;;;;;;15.43;11.53;;;;;;;11.71;59.00;102452.34;5101158;28;20184;-59
2021/10/04 07:08:32;;;;;;;15.57;12.33;;;;;;;11.76;58.85;102438.06;5110217;27;20182;-58
2021/10/04 07:10:57;;;;;;;19.17;12.50;;;;;;;11.88;58.26;102434.88;5106103;27;20285;-60
2021/10/04 07:13:23;;;;;;;18.73;12.10;;;;;;;12.06;57.24;102444.03;5105952;28;20205;-60
2021/10/04 07:15:49;;;;;;;21.13;12.60;;;;;;;12.04;56.72;102446.38;5100379;27;20217;-58
2021/10/04 07:18:16;;;;;;;23.57;14.00;;;;;;;11.96;56.36;102413.44;5108391;27;20226;-59
2021/10/04 07:20:43;;;;;;;16.73;12.50;;;;;;;12.35;57.04;102453.88;5107506;27;20570;-58
2021/10/04 07:23:08;;;;;;;15.97;11.73;;;;;;;12.46;56.08;102451.09;5079991;28;20197;-58
2021/10/04 07:25:35;;;;;;;16.27;12.20;;;;;;;12.59;55.42;102443.88;5103224;28;20180;-60
2021/10/04 07:28:02;;;;;;;17.87;11.80;;;;;;;12.71;55.50;102449.81;5103746;27;20205;-59
2021/10/04 07:30:28;;;;;;;16.60;11.87;;;;;;;12.75;55.40;102447.81;5108593;27;20194;-60
2021/10/04 07:32:55;;;;;;;17.53;11.77;;;;;;;12.79;54.93;102443.03;5104188;28;20215;-60
2021/10/04 07:35:22;;;;;;;17.87;12.47;;;;;;;12.73;54.77;102407.66;5093724;27;20440;-59
2021/10/04 07:37:48;;;;;;;16.63;12.67;;;;;;;13.12;54.81;102452.84;5088134;28;20180;-60
2021/10/04 07:40:13;;;;;;;15.17;12.30;;;;;;;13.25;54.60;102449.19;5111543;27;20185;-60
2021/10/04 07:42:41;;;;;;;16.40;12.17;;;;;;;13.28;54.45;102442.00;5086121;28;20183;-60
2021/10/04 07:45:07;;;;;;;18.03;11.90;;;;;;;13.52;54.09;102455.00;5107957;27;20904;-59
2021/10/04 07:47:33;;;;;;;16.33;12.30;;;;;;;13.66;53.93;102457.66;5084438;28;20194;-59
2021/10/04 07:49:58;;;;;;;17.80;13.07;;;;;;;13.69;53.62;102452.03;5101695;28;20769;-59
2021/10/04 07:52:24;;;;;;;23.20;14.70;;;;;;;13.56;53.38;102419.53;5104217;28;20183;-59
2021/10/04 07:54:49;;;;;;;21.97;15.37;;;;;;;13.30;53.10;102362.44;5102262;28;20213;-60
2021/10/04 07:57:15;;;;;;;17.97;11.90;;;;;;;13.78;52.85;102437.66;5078959;28;20261;-59
2021/10/04 07:59:41;;;;;;;16.87;13.07;;;;;;;13.70;53.78;102462.00;5085545;28;20212;-61
2021/10/04 08:02:08;;;;;;;19.10;12.63;;;;;;;13.86;53.91;102453.13;5086328;28;20340;-60
2021/10/04 08:04:34;;;;;;;17.43;12.50;;;;;;;13.81;53.21;102446.00;5098795;27;20184;-60
2021/10/04 08:06:59;;;;;;;18.37;12.97;;;;;;;13.70;53.57;102441.69;5111966;28;20592;-60
2021/10/04 08:09:25;;;;;;;20.57;12.67;;;;;;;13.66;53.30;102427.81;5106019;28;20197;-59
2021/10/04 08:11:50;;;;;;;16.87;13.20;;;;;;;13.82;53.50;102442.00;5106324;28;20190;-60
2021/10/04 08:14:16;;;;;;;18.10;12.73;;;;;;;13.34;53.44;102363.22;5105196;28;20631;-59
2021/10/04 08:16:41;;;;;;;19.47;12.77;;;;;;;13.98;53.31;102438.69;5106812;28;20191;-59
2021/10/04 08:19:07;;;;;;;18.20;13.03;;;;;;;14.06;52.73;102437.41;5105191;28;20230;-60
2021/10/04 08:21:33;;;;;;;16.43;13.00;;;;;;;14.01;52.69;102440.63;5088084;28;20289;-58
2021/10/04 08:23:59;;;;;;;17.27;13.37;;;;;;;14.11;52.65;102439.75;5108547;28;20253;-59
2021/10/04 08:26:26;;;;;;;18.30;13.10;;;;;;;14.28;52.73;102436.81;5105560;28;20185;-60
2021/10/04 08:28:52;;;;;;;17.87;12.63;;;;;;;14.41;52.19;102434.28;5106856;28;20202;-59
2021/10/04 08:31:18;;;;;;;19.00;13.07;;;;;;;14.49;52.79;102422.63;5110708;28;20626;-60
2021/10/04 08:33:44;;;;;;;23.40;13.13;;;;;;;14.51;52.28;102417.41;5114059;27;20181;-59
2021/10/04 08:36:09;;;;;;;19.83;14.00;;;;;;;14.35;51.52;102394.88;5090368;27;20257;-60
2021/10/04 08:38:35;;;;;;;20.93;14.47;;;;;;;14.68;51.67;102416.44;5107949;27;20674;-59
2021/10/04 08:41:01;;;;;;;19.17;13.77;;;;;;;14.40;51.88;102371.34;5094202;28;20278;-59
2021/10/04 08:43:27;;;;;;;21.37;14.20;;;;;;;14.81;51.97;102408.31;5108878;28;20231;-60
2021/10/04 08:45:57;;;;;;;17.10;13.30;;;;;;;14.56;51.91;102372.31;5107202;27;20180;-60
2021/10/04 08:48:24;;;;;;;22.80;13.90;;;;;;;14.71;51.97;102395.28;5108625;28;20630;-60
2021/10/04 08:50:50;;;;;;;23.67;17.17;;;;;;;14.74;52.09;102405.59;5109593;27;20544;-59
2021/10/04 08:53:16;;;;;;;18.17;13.33;;;;;;;14.43;52.10;102353.75;5090519;28;20212;-59
2021/10/04 08:55:42;;;;;;;17.30;12.97;;;;;;;14.51;52.16;102339.31;5108067;27;20607;-59
2021/10/04 08:58:10;;;;;;;21.93;13.70;;;;;;;15.12;51.50;102407.06;5110435;27;20260;-60
2021/10/04 09:00:36;;;;;;;18.50;14.00;;;;;;;15.32;51.37;102403.16;5102473;27;20466;-59
2021/10/04 09:03:03;;;;;;;19.70;14.37;;;;;;;15.50;50.28;102405.72;5108969;27;20698;-59
2021/10/04 09:05:30;;;;;;;19.20;13.93;;;;;;;15.30;49.05;102358.13;5112502;27;20272;-59
2021/10/04 09:08:10;;;;;;;21.37;14.77;;;;;;;15.48;49.56;102397.75;5103466;27;20190;-60
2021/10/04 09:10:41;;;;;;;18.47;14.63;;;;;;;15.74;49.25;102404.53;5106028;27;20283;-59
2021/10/04 09:13:11;;;;;;;21.13;14.27;;;;;;;15.60;49.73;102362.84;5112765;27;20173;-59
2021/10/04 09:15:47;;;;;;;20.23;14.23;;;;;;;15.87;47.97;102403.50;5104172;27;20580;-59
2021/10/04 09:18:15;;;;;;;19.87;14.17;;;;;;;15.88;48.85;102393.09;5106252;28;20317;-60
2021/10/04 09:21:01;;;;;;;22.73;13.83;;;;;;;15.97;48.75;102390.53;5109950;27;20616;-60
2021/10/04 09:23:28;;;;;;;18.87;13.63;;;;;;;16.05;48.34;102386.41;5108146;27;20186;-60
2021/10/04 09:25:53;;;;;;;17.73;14.13;;;;;;;16.15;49.25;102389.00;5107225;27;20262;-60
2021/10/04 09:28:34;;;;;;;18.33;14.80;;;;;;;16.18;48.92;102385.34;5108081;27;20242;-60
2021/10/04 09:31:18;;;;;;;20.27;14.77;;;;;;;16.17;48.49;102394.94;5108749;28;20170;-59
2021/10/04 09:34:14;;;;;;;21.33;13.07;;;;;;;16.38;48.31;102388.16;5109257;27;20214;-58
2021/10/04 09:36:45;;;;;;;19.00;12.93;;;;;;;15.96;47.50;102317.06;5108126;27;20654;-59
2021/10/04 09:39:27;;;;;;;17.77;11.83;;;;;;;16.64;46.98;102381.66;5111064;27;20196;-59
2021/10/04 09:42:04;;;;;;;17.40;9.97;;;;;;;16.79;46.18;102383.72;5088699;27;20193;-59
2021/10/04 09:44:45;;;;;;;15.13;11.20;;;;;;;16.93;46.08;102383.41;5108972;27;20260;-60
2021/10/04 09:47:12;;;;;;;17.50;13.17;;;;;;;17.00;45.86;102382.47;5107502;28;20640;-59
2021/10/04 09:50:11;;;;;;;15.70;12.30;;;;;;;16.12;46.05;102240.81;5108062;28;20552;-59
2021/10/04 09:53:00;;;;;;;15.90;12.13;;;;;;;17.26;45.79;102378.66;5107135;28;20265;-60
2021/10/04 09:55:29;;;;;;;15.00;9.50;;;;;;;17.42;44.81;102365.47;5107764;27;20645;-60
2021/10/04 09:58:00;;;;;;;17.47;10.67;;;;;;;17.50;45.06;102370.91;5107953;28;20685;-61
2021/10/04 10:00:27;;;;;;;18.47;10.53;;;;;;;17.62;44.98;102370.19;5110710;27;20247;-60
2021/10/04 10:02:56;;;;;;;14.23;9.90;;;;;;;17.80;44.65;102364.94;5107439;28;20183;-60
2021/10/04 10:05:27;;;;;;;15.57;10.27;;;;;;;17.79;44.27;102361.34;5111481;27;20188;-60
2021/10/04 10:07:52;;;;;;;16.17;10.27;;;;;;;17.66;44.53;102298.00;5098522;27;20215;-60
2021/10/04 10:10:19;;;;;;;15.03;10.10;;;;;;;18.13;43.99;102339.94;5105010;27;20182;-60
2021/10/04 10:12:45;;;;;;;13.67;9.77;;;;;;;17.74;42.88;102255.31;5105337;28;20239;-59
2021/10/04 10:15:28;;;;;;;15.33;9.20;;;;;;;18.45;43.02;102335.47;5105836;28;20694;-61
2021/10/04 10:18:14;;;;;;;14.47;9.60;;;;;;;18.56;43.27;102319.88;5103754;28;20309;-60
2021/10/04 10:20:42;;;;;;;14.23;10.37;;;;;;;18.54;42.67;102341.22;5106942;28;20644;-59
2021/10/04 10:23:08;;;;;;;18.30;10.17;;;;;;;18.61;42.54;102319.34;5105547;27;20182;-61
2021/10/04 10:25:43;;;;;;;16.83;9.70;;;;;;;18.88;43.34;102336.53;5087881;28;20269;-60
2021/10/04 10:28:44;;;;;;;16.20;9.80;;;;;;;18.89;42.02;102331.72;5105920;28;20591;-60
2021/10/04 10:31:10;;;;;;;15.93;9.90;;;;;;;18.74;42.60;102291.25;5025322;28;20690;-59
2021/10/04 10:33:50;;;;;;;25.90;10.40;;;;;;;19.04;41.87;102316.75;5066750;27;20194;-60
2021/10/04 10:36:37;;;;;;;16.83;10.77;;;;;;;19.00;42.07;102313.31;5102275;27;20465;-60
2021/10/04 10:39:06;;;;;;;19.57;10.60;;;;;;;19.01;41.80;102291.59;5100513;28;20235;-61
2021/10/04 10:41:36;;;;;;;15.63;10.37;;;;;;;19.16;41.31;102303.94;5104724;28;20192;-60
2021/10/04 10:44:03;;;;;;;12.70;9.53;;;;;;;19.16;41.11;102293.50;5103651;27;20182;-60
2021/10/04 10:46:50;;;;;;;16.93;9.53;;;;;;;19.11;41.07;102290.47;5103338;28;20184;-59
2021/10/04 10:49:52;;;;;;;13.00;8.90;;;;;;;19.27;41.90;102293.97;5102923;27;20970;-60
2021/10/04 10:52:23;;;;;;;14.87;9.33;;;;;;;19.49;40.29;102283.56;5085289;28;20249;-61
2021/10/04 10:54:49;;;;;;;18.60;9.50;;;;;;;19.49;40.66;102285.59;5100974;27;20221;-61
2021/10/04 10:57:15;;;;;;;19.07;9.57;;;;;;;19.65;39.90;102277.78;5107294;27;20180;-60
2021/10/04 10:59:40;;;;;;;16.03;9.23;;;;;;;19.80;40.17;102278.84;5103973;27;20411;-60
2021/10/04 11:02:26;;;;;;;14.57;8.90;;;;;;;19.76;39.80;102269.75;5105125;27;20291;-60
2021/10/04 11:04:51;;;;;;;11.53;8.80;;;;;;;19.35;39.85;102182.84;5104222;28;20459;-61
2021/10/04 11:07:54;;;;;;;11.90;8.33;;;;;;;19.54;40.22;102186.59;5108320;27;20646;-60
2021/10/04 11:10:19;;;;;;;16.43;8.17;;;;;;;20.39;39.44;102263.81;5103477;27;20235;-62
2021/10/04 11:13:19;;;;;;;14.03;8.07;;;;;;;20.59;38.59;102258.59;5105416;28;20421;-60
2021/10/04 11:15:44;;;;;;;13.93;7.53;;;;;;;20.78;38.03;102252.56;5101813;27;20214;-60